GVAC/SID METAR and TAF weather

Enter ICAO airport designator
Station Type Date Time Source
GVAC METAR 2020/07/04 10:00 UTC NOAA

GVAC 041000Z 01010KT 9999 BKN014 27/21 Q1016 NOSIG


Station Type Date Time Source
GVAC Decoded METAR 2020/07/04 10:00 UTC NOAA

Sal, Cape Verde (GVAC) 16-44N 022-57W 55M
Jul 04, 2020 - 06:00 AM EDT / 2020.07.04 1000 UTC
Wind: from the N (010 degrees) at 12 MPH (10 KT):0
Visibility: greater than 7 mile(s):0
Sky conditions: mostly cloudy
Temperature: 80 F (27 C)
Dew Point: 69 F (21 C)
Relative Humidity: 69%
Pressure (altimeter): 30.00 in. Hg (1016 hPa)
ob: GVAC 041000Z 01010KT 9999 BKN014 27/21 Q1016 NOSIG
cycle: 10

Station Type Date Time Source
GVAC TAF 2020/07/04 06:59 UTC NOAA

TAF GVAC 040500Z 0406/0512 01015KT 9999 SCT014

Example: see airport list